createdAt,value
2023-02-23T00:00:34.114Z,5.47
2023-02-23T00:03:03.968Z,4.73
2023-02-23T00:05:38.230Z,5.07
2023-02-23T00:08:07.871Z,5.23
2023-02-23T00:10:37.187Z,4.60
2023-02-23T00:13:08.022Z,4.60
2023-02-23T00:15:38.361Z,4.93
2023-02-23T00:18:07.726Z,5.03
2023-02-23T00:20:37.631Z,5.47
2023-02-23T00:23:06.931Z,4.80
2023-02-23T00:25:39.118Z,5.17
2023-02-23T00:28:10.402Z,5.43
2023-02-23T00:30:39.926Z,5.20
2023-02-23T00:33:09.588Z,5.03
2023-02-23T00:35:39.029Z,5.67
2023-02-23T00:38:09.336Z,5.23
2023-02-23T00:40:42.596Z,5.33
2023-02-23T00:43:15.357Z,5.13
2023-02-23T00:45:44.753Z,5.30
2023-02-23T00:48:14.122Z,5.67
2023-02-23T00:50:43.738Z,5.10
2023-02-23T00:53:13.117Z,4.90
2023-02-23T00:55:43.288Z,5.30
2023-02-23T00:58:14.360Z,5.20
2023-02-23T01:00:44.447Z,5.93
2023-02-23T01:03:13.676Z,5.13
2023-02-23T01:05:44.181Z,6.10
2023-02-23T01:08:15.633Z,5.40
2023-02-23T01:10:52.455Z,5.33
2023-02-23T01:13:23.741Z,5.13
2023-02-23T01:15:53.776Z,5.73
2023-02-23T01:18:23.258Z,5.23
2023-02-23T01:20:52.544Z,5.60
2023-02-23T01:23:23.006Z,5.37
2023-02-23T01:25:52.310Z,5.03
2023-02-23T01:28:23.736Z,5.13
2023-02-23T01:30:53.001Z,5.17
2023-02-23T01:33:22.404Z,4.77
2023-02-23T01:35:59.965Z,5.40
2023-02-23T01:38:29.553Z,5.20
2023-02-23T01:40:58.960Z,5.10
2023-02-23T01:43:29.809Z,5.70
2023-02-23T01:45:59.818Z,6.17
2023-02-23T01:48:32.738Z,5.30
2023-02-23T01:51:05.399Z,4.87
2023-02-23T01:53:38.434Z,5.47
2023-02-23T01:56:12.201Z,5.10
2023-02-23T01:58:46.569Z,6.20
2023-02-23T02:01:16.565Z,5.50
2023-02-23T02:03:51.129Z,5.90
2023-02-23T02:06:23.651Z,5.23
2023-02-23T02:08:57.828Z,5.23
2023-02-23T02:11:31.092Z,5.07
2023-02-23T02:14:04.046Z,5.13
2023-02-23T02:17:02.731Z,5.17
2023-02-23T02:20:13.254Z,5.33
2023-02-23T02:22:56.141Z,5.43
2023-02-23T02:25:36.758Z,5.70
2023-02-23T02:28:31.083Z,6.40
2023-02-23T02:31:45.797Z,5.83
2023-02-23T02:34:44.310Z,5.73
2023-02-23T02:37:37.974Z,6.47
2023-02-23T02:40:18.609Z,6.00
2023-02-23T02:43:08.950Z,5.80
2023-02-23T02:45:49.740Z,5.97
2023-02-23T02:48:27.072Z,6.33
2023-02-23T02:50:59.648Z,5.80
2023-02-23T02:53:41.180Z,6.33
2023-02-23T02:56:11.487Z,6.83
2023-02-23T02:58:43.811Z,5.93
2023-02-23T03:01:34.019Z,6.10
2023-02-23T03:04:36.208Z,5.80
2023-02-23T03:07:29.569Z,6.20
2023-02-23T03:10:27.187Z,7.27
2023-02-23T03:13:22.945Z,6.17
2023-02-23T03:16:19.084Z,6.77
2023-02-23T03:19:24.300Z,6.20
2023-02-23T03:22:15.970Z,6.97
2023-02-23T03:25:08.452Z,6.50
2023-02-23T03:28:04.308Z,6.23
2023-02-23T03:30:57.507Z,6.63
2023-02-23T03:33:51.865Z,6.17
2023-02-23T03:36:44.935Z,6.80
2023-02-23T03:39:41.075Z,6.77
2023-02-23T03:42:32.127Z,7.07
2023-02-23T03:45:24.759Z,6.53
2023-02-23T03:48:13.974Z,6.73
2023-02-23T03:51:10.283Z,6.57
2023-02-23T03:54:05.010Z,7.20
2023-02-23T03:56:54.665Z,6.37
2023-02-23T03:59:45.973Z,7.10
2023-02-23T04:02:36.446Z,6.97
2023-02-23T04:05:28.443Z,6.77
2023-02-23T04:08:16.699Z,6.23
2023-02-23T04:11:09.471Z,6.33
2023-02-23T04:13:40.415Z,6.57
2023-02-23T04:16:11.834Z,6.47
2023-02-23T04:18:42.949Z,6.40
2023-02-23T04:21:12.312Z,7.07
2023-02-23T04:23:42.882Z,6.53
2023-02-23T04:26:12.205Z,6.87
2023-02-23T04:28:41.483Z,6.80
2023-02-23T04:31:10.752Z,6.50
2023-02-23T04:33:41.953Z,6.57
2023-02-23T04:36:11.219Z,6.83
2023-02-23T04:38:40.504Z,6.87
2023-02-23T04:41:09.891Z,6.50
2023-02-23T04:43:39.208Z,6.63
2023-02-23T04:46:08.644Z,6.07
2023-02-23T04:48:37.977Z,6.37
2023-02-23T04:51:09.021Z,6.60
2023-02-23T04:53:39.570Z,6.50
2023-02-23T04:56:09.412Z,6.00
2023-02-23T04:58:38.704Z,6.17
2023-02-23T05:01:10.082Z,6.33
2023-02-23T05:03:39.547Z,6.33
2023-02-23T05:06:10.285Z,5.63
2023-02-23T05:08:39.455Z,6.60
2023-02-23T05:11:09.263Z,6.40
2023-02-23T05:13:38.850Z,6.67
2023-02-23T05:16:09.259Z,6.50
2023-02-23T05:18:38.515Z,6.93
2023-02-23T05:21:10.513Z,7.00
2023-02-23T05:23:40.118Z,6.67
2023-02-23T05:26:11.406Z,6.30
2023-02-23T05:28:42.484Z,6.60
2023-02-23T05:31:12.730Z,6.10
2023-02-23T05:33:43.898Z,7.10
2023-02-23T05:36:17.444Z,6.83
2023-02-23T05:38:48.063Z,6.83
2023-02-23T05:41:20.110Z,5.87
2023-02-23T05:43:51.399Z,6.97
2023-02-23T05:46:24.411Z,5.93
2023-02-23T05:48:57.472Z,7.10
2023-02-23T05:51:29.402Z,6.87
2023-02-23T05:53:58.686Z,6.53
2023-02-23T05:56:28.315Z,5.97
2023-02-23T05:58:59.088Z,6.70
2023-02-23T06:01:29.650Z,6.73
2023-02-23T06:03:58.896Z,5.90
2023-02-23T06:06:29.748Z,6.07
2023-02-23T06:08:59.085Z,5.63
2023-02-23T06:11:28.611Z,5.97
2023-02-23T06:14:00.858Z,5.77
2023-02-23T06:16:30.456Z,5.63
2023-02-23T06:18:59.931Z,5.50
2023-02-23T06:21:31.286Z,5.93
2023-02-23T06:24:01.233Z,5.70
2023-02-23T06:26:31.363Z,5.80
2023-02-23T06:29:00.913Z,5.67
2023-02-23T06:31:30.889Z,6.03
2023-02-23T06:34:00.371Z,5.70
2023-02-23T06:36:31.980Z,5.83
2023-02-23T06:39:01.926Z,5.63
2023-02-23T06:41:31.786Z,5.63
2023-02-23T06:44:01.163Z,5.57
2023-02-23T06:46:30.476Z,5.40
2023-02-23T06:49:00.135Z,5.20
2023-02-23T06:51:31.000Z,5.67
2023-02-23T06:54:00.391Z,6.00
2023-02-23T06:56:29.731Z,5.10
2023-02-23T06:58:58.910Z,6.10
2023-02-23T07:01:28.183Z,5.60
2023-02-23T07:03:57.719Z,6.03
2023-02-23T07:06:27.075Z,5.80
2023-02-23T07:09:00.705Z,5.63
2023-02-23T07:11:30.128Z,5.80
2023-02-23T07:14:00.015Z,6.50
2023-02-23T07:16:29.861Z,6.00
2023-02-23T07:18:59.094Z,6.13
2023-02-23T07:21:28.555Z,6.00
2023-02-23T07:23:57.869Z,5.97
2023-02-23T07:26:28.684Z,6.33
2023-02-23T07:28:58.077Z,5.70
2023-02-23T07:31:27.687Z,5.73
2023-02-23T07:33:57.336Z,5.60
2023-02-23T07:36:26.853Z,6.23
2023-02-23T07:38:56.289Z,5.97
2023-02-23T07:41:25.810Z,6.10
2023-02-23T07:43:57.814Z,6.47
2023-02-23T07:46:27.499Z,6.03
2023-02-23T07:48:56.790Z,5.97
2023-02-23T07:51:26.035Z,6.13
2023-02-23T07:53:55.808Z,6.67
2023-02-23T07:56:25.090Z,6.73
2023-02-23T07:58:54.366Z,6.87
2023-02-23T08:01:25.266Z,5.93
2023-02-23T08:03:54.597Z,6.73
2023-02-23T08:06:23.814Z,5.90
2023-02-23T08:08:53.110Z,6.37
2023-02-23T08:11:22.423Z,5.87
2023-02-23T08:13:51.733Z,6.03
2023-02-23T08:16:21.024Z,5.93
2023-02-23T08:18:51.743Z,5.83
2023-02-23T08:21:21.228Z,6.60
2023-02-23T08:23:50.608Z,6.20
2023-02-23T08:26:19.930Z,5.40
2023-02-23T08:28:49.488Z,6.00
2023-02-23T08:31:21.668Z,6.77
2023-02-23T08:33:52.783Z,6.40
2023-02-23T08:36:22.376Z,6.27
2023-02-23T08:38:52.012Z,6.20
2023-02-23T08:41:21.548Z,6.40
2023-02-23T08:43:51.006Z,5.83
2023-02-23T08:46:20.863Z,6.43
2023-02-23T08:48:51.545Z,6.17
2023-02-23T08:51:21.086Z,5.97
2023-02-23T08:53:50.473Z,6.63
2023-02-23T08:56:20.043Z,6.07
2023-02-23T08:58:49.257Z,6.73
2023-02-23T09:01:19.942Z,6.70
2023-02-23T09:03:49.823Z,5.90
2023-02-23T09:06:23.583Z,7.00
2023-02-23T09:08:54.032Z,6.50
2023-02-23T09:11:23.531Z,6.47
2023-02-23T09:13:52.775Z,6.63
2023-02-23T09:16:22.126Z,6.30
2023-02-23T09:18:52.029Z,6.17
2023-02-23T09:21:25.605Z,6.40
2023-02-23T09:23:56.476Z,6.90
2023-02-23T09:26:26.534Z,7.00
2023-02-23T09:28:55.819Z,6.57
2023-02-23T09:31:25.996Z,6.43
2023-02-23T09:33:56.031Z,7.50
2023-02-23T09:36:28.361Z,6.30
2023-02-23T09:38:58.301Z,7.17
2023-02-23T09:41:55.499Z,7.13
2023-02-23T09:44:36.762Z,6.97
2023-02-23T09:47:23.049Z,6.63
2023-02-23T09:49:53.686Z,6.70
2023-02-23T09:52:29.185Z,7.03
2023-02-23T09:55:00.363Z,6.80
2023-02-23T09:57:38.919Z,7.27
2023-02-23T10:00:18.374Z,7.30
2023-02-23T10:03:25.235Z,7.20
2023-02-23T10:05:59.325Z,7.33
2023-02-23T10:08:44.604Z,7.33
2023-02-23T10:11:25.469Z,6.67
2023-02-23T10:14:10.098Z,7.03
2023-02-23T10:16:51.567Z,6.80
2023-02-23T10:19:28.864Z,7.03
2023-02-23T10:22:01.379Z,7.07
2023-02-23T10:24:35.648Z,7.73
2023-02-23T10:27:12.072Z,7.33
2023-02-23T10:29:44.783Z,7.27
2023-02-23T10:32:22.686Z,7.30
2023-02-23T10:34:57.009Z,6.67
2023-02-23T10:37:27.618Z,7.70
2023-02-23T10:39:58.674Z,7.27
2023-02-23T10:42:30.215Z,7.53
2023-02-23T10:45:00.689Z,7.50
2023-02-23T10:47:33.247Z,6.53
2023-02-23T10:50:03.678Z,6.93
2023-02-23T10:52:41.533Z,7.27
2023-02-23T10:55:25.519Z,6.97
2023-02-23T10:58:06.000Z,7.87
2023-02-23T11:00:37.259Z,6.47
2023-02-23T11:03:20.523Z,7.53
2023-02-23T11:05:53.395Z,7.70
2023-02-23T11:08:26.547Z,6.83
2023-02-23T11:11:21.868Z,6.73
2023-02-23T11:13:52.696Z,6.60
2023-02-23T11:16:23.788Z,7.50
2023-02-23T11:18:56.109Z,7.77
2023-02-23T11:21:29.660Z,7.40
2023-02-23T11:24:02.697Z,7.17
2023-02-23T11:26:38.804Z,7.23
2023-02-23T11:29:17.258Z,7.73
2023-02-23T11:31:51.358Z,7.67
2023-02-23T11:34:31.805Z,7.17
2023-02-23T11:37:04.465Z,7.50
2023-02-23T11:39:33.847Z,7.53
2023-02-23T11:42:19.591Z,7.10
2023-02-23T11:44:54.148Z,7.03
2023-02-23T11:47:26.352Z,7.37
2023-02-23T11:49:56.520Z,7.50
2023-02-23T11:52:28.177Z,7.13
2023-02-23T11:55:00.164Z,7.63
2023-02-23T11:57:33.899Z,6.83
2023-02-23T12:00:11.422Z,7.00
2023-02-23T12:02:52.613Z,6.43
2023-02-23T12:05:25.590Z,7.00
2023-02-23T12:08:01.426Z,6.73
2023-02-23T12:10:36.146Z,7.00
2023-02-23T12:13:19.027Z,7.40
2023-02-23T12:15:53.434Z,6.10
2023-02-23T12:18:39.067Z,6.63
2023-02-23T12:21:19.790Z,6.43
2023-02-23T12:23:52.860Z,6.40
2023-02-23T12:26:25.175Z,6.77
2023-02-23T12:29:02.782Z,7.63
2023-02-23T12:31:44.681Z,6.77
2023-02-23T12:34:19.478Z,6.53
2023-02-23T12:36:56.858Z,6.27
2023-02-23T12:39:32.707Z,6.40
2023-02-23T12:42:09.600Z,6.60
2023-02-23T12:44:46.092Z,6.23
2023-02-23T12:47:26.208Z,6.30
2023-02-23T12:50:07.821Z,7.13
2023-02-23T12:52:42.492Z,6.53
2023-02-23T12:55:13.829Z,5.80
2023-02-23T12:57:50.299Z,7.20
2023-02-23T13:00:41.670Z,6.53
2023-02-23T13:03:40.462Z,6.40
2023-02-23T13:06:15.903Z,6.30
2023-02-23T13:09:04.112Z,6.27
2023-02-23T13:12:06.539Z,6.77
2023-02-23T13:14:43.366Z,6.23
2023-02-23T13:17:30.399Z,6.67
2023-02-23T13:20:03.726Z,7.10
2023-02-23T13:22:39.332Z,6.87
2023-02-23T13:25:22.480Z,6.20
2023-02-23T13:27:56.964Z,6.67
2023-02-23T13:30:26.338Z,6.70
2023-02-23T13:32:58.457Z,6.23
2023-02-23T13:35:29.317Z,6.27
2023-02-23T13:38:06.049Z,6.53
2023-02-23T13:40:42.463Z,6.30
2023-02-23T13:43:23.333Z,7.23
2023-02-23T13:46:16.635Z,6.00
2023-02-23T13:48:58.008Z,6.67
2023-02-23T13:51:38.397Z,7.17
2023-02-23T13:54:25.454Z,6.93
2023-02-23T13:56:58.641Z,6.87
2023-02-23T13:59:30.901Z,6.80
2023-02-23T14:02:04.098Z,6.97
2023-02-23T14:04:42.701Z,6.67
2023-02-23T14:07:23.104Z,6.63
2023-02-23T14:09:57.184Z,7.23
2023-02-23T14:12:28.622Z,7.27
2023-02-23T14:14:58.015Z,6.33
2023-02-23T14:17:56.777Z,6.50
2023-02-23T14:20:46.437Z,6.77
2023-02-23T14:23:34.605Z,8.07
2023-02-23T14:26:16.698Z,7.17
2023-02-23T14:28:49.417Z,7.03
2023-02-23T14:31:23.276Z,7.53
2023-02-23T14:33:59.147Z,7.10
2023-02-23T14:36:38.304Z,7.30
2023-02-23T14:39:11.857Z,7.17
2023-02-23T14:41:50.361Z,6.37
2023-02-23T14:44:31.157Z,7.70
2023-02-23T14:47:04.556Z,7.07
2023-02-23T14:49:39.280Z,7.87
2023-02-23T14:52:14.772Z,7.10
2023-02-23T14:54:44.056Z,6.93
2023-02-23T14:57:21.515Z,6.93
2023-02-23T14:59:58.029Z,6.57
2023-02-23T15:02:28.691Z,7.50
2023-02-23T15:04:58.146Z,6.70
2023-02-23T15:07:33.971Z,6.60
2023-02-23T15:10:05.686Z,6.83
2023-02-23T15:12:38.639Z,7.80
2023-02-23T15:15:17.213Z,7.27
2023-02-23T15:17:49.678Z,7.57
2023-02-23T15:20:23.634Z,6.63
2023-02-23T15:22:57.821Z,7.53
2023-02-23T15:25:35.383Z,7.67
2023-02-23T15:28:23.832Z,7.20
2023-02-23T15:30:54.377Z,7.33
2023-02-23T15:33:28.748Z,7.97
2023-02-23T15:36:07.757Z,7.57
2023-02-23T15:38:44.664Z,7.53
2023-02-23T15:41:21.693Z,6.97
2023-02-23T15:43:51.173Z,7.37
2023-02-23T15:46:26.371Z,7.27
2023-02-23T15:48:57.170Z,7.60
2023-02-23T15:51:34.171Z,7.90
2023-02-23T15:54:14.473Z,8.33
2023-02-23T15:56:47.347Z,7.27
2023-02-23T15:59:24.096Z,7.30
2023-02-23T16:01:56.179Z,7.93
2023-02-23T16:04:32.789Z,7.70
2023-02-23T16:07:13.410Z,7.57
2023-02-23T16:09:52.288Z,8.70
2023-02-23T16:12:25.335Z,8.17
2023-02-23T16:14:57.491Z,7.97
2023-02-23T16:17:29.511Z,8.27
2023-02-23T16:20:09.456Z,8.17
2023-02-23T16:22:41.541Z,8.03
2023-02-23T16:25:16.130Z,8.63
2023-02-23T16:27:47.109Z,8.60
2023-02-23T16:30:23.935Z,9.07
2023-02-23T16:33:08.118Z,9.60
2023-02-23T16:35:43.890Z,9.13
2023-02-23T16:38:16.389Z,9.10
2023-02-23T16:40:49.121Z,8.87
2023-02-23T16:43:18.853Z,9.83
2023-02-23T16:45:48.624Z,9.33
2023-02-23T16:48:21.021Z,10.00
2023-02-23T16:50:51.694Z,9.30
2023-02-23T16:53:23.639Z,10.10
2023-02-23T16:55:57.994Z,10.33
2023-02-23T16:58:31.293Z,10.47
2023-02-23T17:01:00.805Z,10.77
2023-02-23T17:03:32.639Z,11.00
2023-02-23T17:06:03.906Z,10.40
2023-02-23T17:08:35.796Z,10.03
2023-02-23T17:11:08.622Z,10.77
2023-02-23T17:13:38.609Z,11.37
2023-02-23T17:16:13.594Z,10.83
2023-02-23T17:18:45.200Z,10.80
2023-02-23T17:21:16.304Z,11.10
2023-02-23T17:23:51.719Z,11.47
2023-02-23T17:26:25.617Z,12.00
2023-02-23T17:28:56.898Z,12.03
2023-02-23T17:31:27.615Z,12.07
2023-02-23T17:33:57.410Z,12.13
2023-02-23T17:36:28.199Z,12.40
2023-02-23T17:38:59.538Z,12.63
2023-02-23T17:41:32.843Z,12.53
2023-02-23T17:44:03.335Z,13.10
2023-02-23T17:46:34.141Z,11.47
2023-02-23T17:49:05.283Z,12.67
2023-02-23T17:51:35.806Z,12.70
2023-02-23T17:54:06.697Z,12.60
2023-02-23T17:56:40.687Z,12.27
2023-02-23T17:59:11.699Z,12.73
2023-02-23T18:01:42.515Z,12.63
2023-02-23T18:04:14.533Z,12.53
2023-02-23T18:06:45.942Z,12.10
2023-02-23T18:09:18.884Z,13.13
2023-02-23T18:11:52.062Z,14.03
2023-02-23T18:14:24.553Z,14.67
2023-02-23T18:16:56.550Z,13.13
2023-02-23T18:19:28.954Z,12.90
2023-02-23T18:22:00.894Z,13.47
2023-02-23T18:24:33.282Z,13.63
2023-02-23T18:27:06.544Z,13.67
2023-02-23T18:29:41.170Z,13.03
2023-02-23T18:32:14.871Z,12.27
2023-02-23T18:34:45.977Z,13.90
2023-02-23T18:37:22.276Z,12.80
2023-02-23T18:39:57.874Z,12.87
2023-02-23T18:42:32.474Z,12.80
2023-02-23T18:45:06.500Z,12.33
2023-02-23T18:47:39.414Z,12.70
2023-02-23T18:50:13.765Z,12.70
2023-02-23T18:52:47.698Z,12.93
2023-02-23T18:55:21.329Z,12.80
2023-02-23T18:57:55.982Z,12.97
2023-02-23T19:00:29.173Z,13.60
2023-02-23T19:03:01.712Z,12.93
2023-02-23T19:05:34.114Z,13.40
2023-02-23T19:08:10.496Z,12.53
2023-02-23T19:10:43.246Z,12.67
2023-02-23T19:13:22.640Z,13.87
2023-02-23T19:15:55.202Z,13.17
2023-02-23T19:18:28.529Z,12.57
2023-02-23T19:21:01.531Z,13.47
2023-02-23T19:23:39.266Z,13.67
2023-02-23T19:26:13.112Z,14.23
2023-02-23T19:28:45.580Z,13.20
2023-02-23T19:31:23.234Z,13.07
2023-02-23T19:33:55.629Z,12.97
2023-02-23T19:36:33.051Z,14.17
2023-02-23T19:39:10.949Z,13.87
2023-02-23T19:41:48.007Z,13.27
2023-02-23T19:44:20.992Z,12.57
2023-02-23T19:46:52.338Z,12.93
2023-02-23T19:49:23.798Z,14.33
2023-02-23T19:51:58.109Z,13.87
2023-02-23T19:54:29.585Z,14.37
2023-02-23T19:57:00.997Z,14.50
2023-02-23T19:59:34.914Z,13.70
2023-02-23T20:02:06.935Z,14.00
2023-02-23T20:04:39.122Z,14.40
2023-02-23T20:07:12.396Z,14.50
2023-02-23T20:09:45.221Z,13.80
2023-02-23T20:15:04.873Z,14.17
2023-02-23T20:17:41.070Z,14.97
2023-02-23T20:20:18.272Z,14.93
2023-02-23T20:22:55.220Z,15.93
2023-02-23T20:25:30.206Z,14.73
2023-02-23T20:28:05.401Z,15.97
2023-02-23T20:30:39.129Z,15.50
2023-02-23T20:33:16.055Z,16.17
2023-02-23T20:35:51.441Z,15.80
2023-02-23T20:38:24.937Z,15.63
2023-02-23T20:40:57.052Z,15.30
2023-02-23T20:43:28.815Z,16.20
2023-02-23T20:46:03.810Z,15.47
2023-02-23T20:48:36.910Z,17.13
2023-02-23T20:51:13.801Z,16.53
2023-02-23T20:53:47.421Z,16.93
2023-02-23T20:56:24.538Z,16.87
2023-02-23T20:58:59.023Z,16.27
2023-02-23T21:01:34.908Z,18.20
2023-02-23T21:04:07.427Z,17.80
2023-02-23T21:06:39.642Z,17.27
2023-02-23T21:09:20.526Z,16.37
2023-02-23T21:11:51.960Z,17.77
2023-02-23T21:14:22.909Z,17.60
2023-02-23T21:16:55.439Z,18.30
2023-02-23T21:19:26.363Z,18.23
2023-02-23T21:21:59.324Z,18.10
2023-02-23T21:24:35.424Z,18.70
2023-02-23T21:27:06.611Z,18.03
2023-02-23T21:29:36.749Z,18.13
2023-02-23T21:32:11.233Z,19.03
2023-02-23T21:34:42.470Z,18.83
2023-02-23T21:37:13.001Z,18.20
2023-02-23T21:39:43.390Z,17.87
2023-02-23T21:42:13.705Z,19.27
2023-02-23T21:44:46.057Z,18.37
2023-02-23T21:47:18.206Z,18.70
2023-02-23T21:49:49.652Z,19.40
2023-02-23T21:52:19.516Z,18.30
2023-02-23T21:54:52.572Z,19.53
2023-02-23T21:57:23.142Z,19.47
2023-02-23T21:59:52.832Z,20.57
2023-02-23T22:02:23.683Z,20.53
2023-02-23T22:04:53.266Z,19.80
2023-02-23T22:07:22.759Z,20.60
2023-02-23T22:09:52.061Z,20.17
2023-02-23T22:12:21.342Z,19.93
2023-02-23T22:14:50.954Z,19.93
2023-02-23T22:17:20.466Z,19.20
2023-02-23T22:19:55.317Z,21.60
2023-02-23T22:22:25.094Z,20.87
2023-02-23T22:24:54.403Z,21.37
2023-02-23T22:27:23.673Z,21.60
2023-02-23T22:29:54.456Z,19.67
2023-02-23T22:32:27.358Z,20.77
2023-02-23T22:34:58.389Z,21.93
2023-02-23T22:37:30.082Z,21.67
2023-02-23T22:40:01.564Z,22.30
2023-02-23T22:42:35.601Z,22.33
2023-02-23T22:45:06.463Z,21.53
2023-02-23T22:47:36.244Z,21.80
2023-02-23T22:50:08.480Z,23.03
2023-02-23T22:52:37.818Z,21.77
2023-02-23T22:55:08.219Z,22.90
2023-02-23T22:57:37.624Z,22.83
2023-02-23T23:00:10.566Z,22.73
2023-02-23T23:02:40.125Z,23.27
2023-02-23T23:05:13.572Z,24.23
2023-02-23T23:07:43.131Z,23.27
2023-02-23T23:10:13.739Z,23.63
2023-02-23T23:12:43.691Z,23.67
2023-02-23T23:15:17.583Z,23.73
2023-02-23T23:17:48.678Z,23.30
2023-02-23T23:20:25.920Z,23.67
2023-02-23T23:22:57.356Z,22.97
2023-02-23T23:25:29.110Z,24.37
2023-02-23T23:27:58.855Z,24.23
2023-02-23T23:30:29.586Z,24.30
2023-02-23T23:33:00.593Z,24.33
2023-02-23T23:35:34.610Z,23.73
2023-02-23T23:38:04.072Z,24.30
2023-02-23T23:40:35.979Z,24.37
2023-02-23T23:43:07.768Z,26.07
2023-02-23T23:45:40.950Z,25.03
2023-02-23T23:48:10.441Z,26.60
2023-02-23T23:50:41.230Z,25.50
2023-02-23T23:53:10.763Z,25.40
2023-02-23T23:55:40.539Z,25.10
2023-02-23T23:58:09.812Z,25.07
